Time;durP1;ratioP1;P1;durP2;ratioP2;P2;SDS_P1;SDS_P2;PMS_P1;PMS_P2;Temp;Humidity;BMP_temperature;BMP_pressure;BME280_temperature;BME280_humidity;BME280_pressure;Samples;Min_cycle;Max_cycle;Signal;HPM_P1;HPM_P2
2021/12/23 00:00:57;;;;;;;5.53;1.70;;;25.20;59.60;;;;;;4098283;28;20101;-76
2021/12/23 00:02:59;;;;;;;;;;;25.20;59.90;;;;;;4112477;28;20141;-74
2021/12/23 00:05:01;;;;;;;3.65;1.42;;;25.30;60.30;;;;;;4093336;28;20683;-74
2021/12/23 00:07:03;;;;;;;3.67;1.40;;;25.30;60.30;;;;;;4114846;28;20050;-73
2021/12/23 00:09:06;;;;;;;4.15;1.45;;;25.30;60.60;;;;;;4101128;28;20049;-71
2021/12/23 00:11:27;;;;;;;2.58;1.30;;;25.40;60.70;;;;;;4136889;28;20073;-73
2021/12/23 00:14:01;;;;;;;3.85;1.73;;;25.40;61.00;;;;;;4131516;28;20045;-72
2021/12/23 00:16:40;;;;;;;3.45;1.70;;;25.40;61.10;;;;;;4135904;28;20163;-70
2021/12/23 00:19:15;;;;;;;3.10;1.50;;;25.40;61.30;;;;;;4140446;28;20115;-73
2021/12/23 00:24:18;;;;;;;4.30;1.50;;;25.50;61.80;;;;;;4140794;28;20651;-74
2021/12/23 00:26:40;;;;;;;3.00;1.50;;;25.50;61.90;;;;;;4142493;28;20045;-73
2021/12/23 00:29:03;;;;;;;3.80;1.30;;;25.50;62.20;;;;;;4142749;28;20518;-74
2021/12/23 00:31:25;;;;;;;4.57;1.58;;;25.50;62.20;;;;;;4142401;28;20104;-72
2021/12/23 00:33:48;;;;;;;5.72;1.60;;;25.60;62.50;;;;;;4127815;28;20087;-73
2021/12/23 00:36:12;;;;;;;2.17;1.20;;;25.60;62.90;;;;;;4115866;28;20046;-71
2021/12/23 00:38:40;;;;;;;6.25;1.58;;;25.60;62.60;;;;;;4142746;28;20103;-73
2021/12/23 00:41:04;;;;;;;5.03;1.15;;;25.60;62.90;;;;;;4143536;28;20092;-74
2021/12/23 00:43:26;;;;;;;2.58;1.35;;;25.60;63.00;;;;;;4144697;28;20042;-75
2021/12/23 00:45:49;;;;;;;6.90;1.60;;;25.70;63.10;;;;;;4143779;28;20045;-74
2021/12/23 00:48:12;;;;;;;5.63;1.52;;;25.70;63.50;;;;;;4142353;28;20084;-75
2021/12/23 00:50:34;;;;;;;9.65;2.08;;;25.70;63.50;;;;;;4143309;28;20443;-76
2021/12/23 00:53:00;;;;;;;3.00;2.03;;;25.70;63.70;;;;;;4145094;28;20042;-74
2021/12/23 00:55:23;;;;;;;13.90;2.63;;;25.70;64.00;;;;;;4144675;28;20042;-75
2021/12/23 00:57:45;;;;;;;6.05;2.03;;;25.70;64.20;;;;;;4141770;28;20509;-75
2021/12/23 01:00:18;;;;;;;4.88;2.00;;;25.70;64.40;;;;;;4143616;28;20062;-75
2021/12/23 01:02:44;;;;;;;2.57;1.73;;;25.70;62.90;;;;;;4143964;28;20443;-75
2021/12/23 01:05:07;;;;;;;3.08;1.95;;;25.70;59.20;;;;;;4131138;28;20065;-75
2021/12/23 01:07:29;;;;;;;3.15;1.80;;;25.50;57.40;;;;;;4144828;28;20046;-74
2021/12/23 01:09:52;;;;;;;2.40;1.70;;;25.40;58.40;;;;;;4144157;28;20046;-74
2021/12/23 01:12:19;;;;;;;2.72;1.60;;;25.40;59.00;;;;;;4143509;28;20038;-75
2021/12/23 01:14:53;;;;;;;2.65;1.80;;;25.40;59.70;;;;;;4143371;28;20064;-75
2021/12/23 01:19:50;;;;;;;2.05;1.48;;;25.40;60.40;;;;;;4135772;28;20129;-73
2021/12/23 01:22:12;;;;;;;2.35;1.50;;;25.40;60.60;;;;;;4144223;28;20164;-75
2021/12/23 01:24:35;;;;;;;1.70;1.30;;;25.50;60.90;;;;;;4133356;28;20030;-75
2021/12/23 01:26:57;;;;;;;2.55;1.58;;;25.50;61.10;;;;;;4123494;28;20081;-75
2021/12/23 01:29:00;;;;;;;2.65;1.30;;;25.50;61.20;;;;;;4089142;28;20125;-76
2021/12/23 01:31:02;;;;;;;3.15;1.40;;;25.50;61.50;;;;;;4091103;28;20092;-76
2021/12/23 01:33:07;;;;;;;2.50;1.70;;;25.60;61.70;;;;;;4093451;28;20046;-78
2021/12/23 01:35:09;;;;;;;2.35;1.77;;;25.60;62.10;;;;;;4073398;28;20042;-74
2021/12/23 01:37:11;;;;;;;2.47;1.73;;;25.50;59.30;;;;;;4088674;28;20177;-74
2021/12/23 01:39:14;;;;;;;2.90;1.63;;;25.50;57.20;;;;;;4095673;28;20315;-74
2021/12/23 01:41:16;;;;;;;1.90;1.50;;;25.40;56.40;;;;;;4104876;28;20393;-76
2021/12/23 01:43:19;;;;;;;1.98;1.40;;;25.30;57.20;;;;;;4103276;28;20084;-74
2021/12/23 01:45:24;;;;;;;2.53;1.60;;;25.30;58.20;;;;;;4092734;28;20042;-75
2021/12/23 01:47:26;;;;;;;2.22;1.52;;;25.30;59.20;;;;;;4092791;28;20148;-74
2021/12/23 01:49:28;;;;;;;2.65;1.50;;;25.30;59.60;;;;;;4087328;28;20070;-75
2021/12/23 01:51:30;;;;;;;2.13;1.35;;;25.30;60.00;;;;;;4107633;28;20049;-73
2021/12/23 01:53:32;;;;;;;3.25;1.42;;;25.40;60.30;;;;;;4099448;28;20145;-75
2021/12/23 01:55:38;;;;;;;1.65;1.13;;;25.40;60.30;;;;;;4087262;28;20188;-75
2021/12/23 01:57:41;;;;;;;1.85;1.40;;;25.40;60.50;;;;;;4086162;28;20078;-73
2021/12/23 01:59:43;;;;;;;1.70;1.20;;;25.40;60.70;;;;;;4107230;28;20061;-75
2021/12/23 02:01:46;;;;;;;1.77;1.48;;;25.40;60.80;;;;;;4109158;28;20081;-76
2021/12/23 02:03:48;;;;;;;1.48;1.20;;;25.50;60.90;;;;;;4087808;28;20077;-73
2021/12/23 02:05:51;;;;;;;1.98;1.13;;;25.50;61.50;;;;;;4105123;28;20061;-73
2021/12/23 02:07:53;;;;;;;1.60;1.23;;;25.50;61.20;;;;;;4077686;28;20039;-73
2021/12/23 02:09:58;;;;;;;2.92;1.65;;;25.50;61.40;;;;;;4088113;28;20069;-73
2021/12/23 02:12:00;;;;;;;1.58;1.35;;;25.60;59.70;;;;;;4106884;28;20123;-75
2021/12/23 02:14:03;;;;;;;2.47;1.52;;;25.50;57.60;;;;;;4090303;28;20098;-74
2021/12/23 02:16:06;;;;;;;2.20;1.40;;;25.40;56.40;;;;;;4110184;28;21075;-73
2021/12/23 02:18:08;;;;;;;2.58;1.40;;;25.30;57.80;;;;;;4085651;28;20308;-74
2021/12/23 02:20:14;;;;;;;2.17;1.60;;;25.30;58.80;;;;;;4087785;28;20098;-75
2021/12/23 02:22:16;;;;;;;1.90;1.50;;;25.30;59.60;;;;;;4093071;28;20053;-74
2021/12/23 02:24:18;;;;;;;2.47;1.58;;;25.30;60.40;;;;;;4087627;28;20057;-73
2021/12/23 02:26:20;;;;;;;3.17;1.50;;;25.30;60.60;;;;;;4072731;28;20220;-76
2021/12/23 02:28:23;;;;;;;3.60;1.65;;;25.40;60.80;;;;;;4091563;28;20051;-75
2021/12/23 02:30:29;;;;;;;2.15;1.52;;;25.40;61.20;;;;;;4090870;28;21040;-74
2021/12/23 02:32:31;;;;;;;2.65;1.52;;;25.40;61.50;;;;;;4105061;28;20101;-73
2021/12/23 02:34:33;;;;;;;2.25;1.40;;;25.40;61.50;;;;;;4103442;28;20108;-76
2021/12/23 02:36:36;;;;;;;3.40;1.42;;;25.50;61.60;;;;;;4093781;28;20137;-75
2021/12/23 02:38:38;;;;;;;3.33;1.50;;;25.50;61.70;;;;;;4086409;28;20055;-74
2021/12/23 02:40:43;;;;;;;2.47;1.52;;;25.50;61.60;;;;;;4086454;28;20705;-73
2021/12/23 02:42:45;;;;;;;2.97;1.60;;;25.50;61.70;;;;;;4073221;28;20058;-74
2021/12/23 02:44:47;;;;;;;2.45;1.25;;;25.60;61.80;;;;;;4096116;28;20158;-76
2021/12/23 02:46:49;;;;;;;1.85;1.30;;;25.60;61.70;;;;;;4105927;28;20061;-73
2021/12/23 02:48:52;;;;;;;3.10;1.70;;;25.60;61.90;;;;;;4095809;28;20055;-78
2021/12/23 02:50:55;;;;;;;2.30;1.80;;;25.60;60.40;;;;;;4102351;28;20350;-74
2021/12/23 02:52:58;;;;;;;2.47;1.70;;;25.50;58.20;;;;;;4086904;28;21742;-74
2021/12/23 02:55:01;;;;;;;3.10;2.00;;;25.40;56.90;;;;;;4089958;28;20050;-75
2021/12/23 02:57:03;;;;;;;2.95;1.90;;;25.30;57.20;;;;;;4114653;28;20042;-74
2021/12/23 02:59:05;;;;;;;2.75;1.80;;;25.30;58.90;;;;;;4101132;28;22243;-75
2021/12/23 03:01:11;;;;;;;3.80;2.33;;;25.30;60.20;;;;;;4082133;28;20062;-73
2021/12/23 03:03:13;;;;;;;3.53;1.92;;;25.30;60.70;;;;;;4110773;28;20085;-75
2021/12/23 03:05:15;;;;;;;3.05;2.08;;;25.30;61.30;;;;;;4118844;28;20101;-75
2021/12/23 03:07:17;;;;;;;2.47;1.73;;;25.40;61.50;;;;;;4095930;28;21130;-74
2021/12/23 03:09:19;;;;;;;3.95;2.00;;;25.40;61.90;;;;;;4107678;28;20042;-74
2021/12/23 03:11:24;;;;;;;4.05;2.20;;;25.40;61.90;;;;;;4109873;28;20571;-73
2021/12/23 03:13:27;;;;;;;4.47;2.03;;;25.50;62.00;;;;;;4116409;28;20050;-72
2021/12/23 03:15:29;;;;;;;2.75;1.70;;;25.50;62.10;;;;;;4088446;28;20193;-72
2021/12/23 03:17:31;;;;;;;2.80;1.60;;;25.50;62.20;;;;;;4106373;28;20141;-76
2021/12/23 03:19:34;;;;;;;3.53;2.20;;;25.60;62.20;;;;;;4112009;28;20062;-79
2021/12/23 03:21:36;;;;;;;3.60;2.40;;;25.60;61.40;;;;;;4092524;28;21367;-77
2021/12/23 03:23:38;;;;;;;3.07;2.20;;;25.60;59.00;;;;;;4072305;28;20078;-73
2021/12/23 03:25:40;;;;;;;3.45;2.38;;;25.50;57.20;;;;;;4093820;28;20793;-72
2021/12/23 03:27:42;;;;;;;3.15;1.98;;;25.40;57.00;;;;;;4079979;28;21001;-78
2021/12/23 03:29:45;;;;;;;3.70;2.00;;;25.40;58.00;;;;;;4092249;28;20050;-82
2021/12/23 03:31:47;;;;;;;3.20;2.47;;;25.40;60.20;;;;;;4092287;28;20065;-80
2021/12/23 03:33:49;;;;;;;5.88;2.35;;;25.40;61.30;;;;;;4119075;28;20050;-75
2021/12/23 03:35:52;;;;;;;4.22;2.58;;;25.40;61.90;;;;;;4089645;28;20720;-75
2021/12/23 03:37:54;;;;;;;4.53;2.20;;;25.40;62.90;;;;;;4087665;28;20368;-73
2021/12/23 03:39:56;;;;;;;4.97;2.65;;;25.50;62.60;;;;;;4097174;28;20136;-75
2021/12/23 03:41:58;;;;;;;4.83;2.80;;;25.50;62.80;;;;;;4108322;28;20061;-75
2021/12/23 03:44:01;;;;;;;3.50;2.28;;;25.60;62.90;;;;;;4110070;28;20049;-74
2021/12/23 03:46:03;;;;;;;4.83;2.83;;;25.60;63.00;;;;;;4109151;28;20058;-81
2021/12/23 03:48:05;;;;;;;4.10;2.58;;;25.70;62.60;;;;;;4094324;28;20157;-73
2021/12/23 03:50:08;;;;;;;3.50;2.13;;;25.60;60.00;;;;;;4109127;28;20053;-75
2021/12/23 03:52:10;;;;;;;3.50;2.08;;;25.60;58.10;;;;;;4105364;28;20054;-78
2021/12/23 03:54:13;;;;;;;4.95;2.67;;;25.50;57.30;;;;;;4087325;28;20054;-82
2021/12/23 03:56:18;;;;;;;3.83;2.35;;;25.40;58.20;;;;;;4076200;28;20257;-79
2021/12/23 03:58:21;;;;;;;3.92;2.60;;;25.40;60.40;;;;;;4088935;28;20046;-76
2021/12/23 04:02:12;;;;;;;6.90;3.38;;;25.50;62.20;;;;;;4242290;27;20431;-61
2021/12/23 04:04:14;;;;;;;5.10;2.63;;;25.50;64.20;;;;;;4227327;27;20058;-62
2021/12/23 04:06:16;;;;;;;6.28;2.88;;;25.60;65.30;;;;;;4232358;27;20047;-61
2021/12/23 04:08:18;;;;;;;6.00;3.20;;;25.60;65.60;;;;;;4225095;27;20050;-61
2021/12/23 04:10:22;;;;;;;5.70;3.05;;;25.70;66.50;;;;;;4206151;27;20130;-62
2021/12/23 04:12:25;;;;;;;5.03;3.00;;;25.70;66.10;;;;;;4233272;27;20051;-61
2021/12/23 04:16:37;;;;;;;4.55;2.92;;;25.80;64.50;;;;;;4207780;22;20962;-79
2021/12/23 04:18:40;;;;;;;4.57;2.70;;;25.80;61.60;;;;;;4135690;28;20052;-76
2021/12/23 04:20:54;;;;;;;4.50;2.72;;;25.70;59.50;;;;;;4159320;28;20080;-77
2021/12/23 04:22:57;;;;;;;3.97;2.65;;;25.70;59.00;;;;;;4155361;28;20099;-78
2021/12/23 04:24:59;;;;;;;4.07;2.63;;;25.70;60.70;;;;;;4159957;28;20053;-78
2021/12/23 04:27:01;;;;;;;7.38;2.90;;;25.70;62.00;;;;;;4133971;28;20049;-77
2021/12/23 04:29:05;;;;;;;5.53;3.07;;;25.70;63.10;;;;;;4153016;28;20045;-79
2021/12/23 04:31:07;;;;;;;5.35;3.00;;;25.80;64.00;;;;;;4159577;28;20447;-80
2021/12/23 04:33:10;;;;;;;5.15;2.67;;;25.80;64.30;;;;;;4137775;28;20057;-80
2021/12/23 04:35:15;;;;;;;6.65;3.40;;;25.80;64.40;;;;;;4153620;28;20051;-80
2021/12/23 04:37:17;;;;;;;4.95;3.10;;;25.90;65.00;;;;;;4151723;28;20056;-82
2021/12/23 04:39:20;;;;;;;3.47;2.43;;;26.00;65.30;;;;;;4162207;28;20037;-79
2021/12/23 04:41:22;;;;;;;3.90;2.40;;;26.00;61.90;;;;;;4154770;28;20068;-78
2021/12/23 04:43:28;;;;;;;4.85;2.63;;;25.90;59.70;;;;;;4155499;28;20068;-80
2021/12/23 04:45:33;;;;;;;4.07;2.40;;;25.70;58.20;;;;;;4138756;28;20050;-80
2021/12/23 04:47:36;;;;;;;4.50;2.45;;;25.60;58.60;;;;;;4159833;28;20545;-78
2021/12/23 04:49:38;;;;;;;;;;;25.60;61.00;;;;;;4157145;28;20175;-79
2021/12/23 04:51:40;;;;;;;3.75;2.42;;;25.60;62.20;;;;;;4152677;28;19951;-79
2021/12/23 04:53:44;;;;;;;5.13;2.88;;;25.60;62.80;;;;;;4160071;28;20044;-76
2021/12/23 04:55:46;;;;;;;5.38;3.42;;;25.70;63.50;;;;;;4158703;28;20270;-78
2021/12/23 04:57:49;;;;;;;7.87;3.20;;;25.70;64.00;;;;;;4152995;28;20976;-78
2021/12/23 04:59:51;;;;;;;8.07;2.95;;;25.70;64.50;;;;;;4153202;28;20047;-78
2021/12/23 05:01:55;;;;;;;5.18;2.60;;;25.80;65.10;;;;;;4140776;28;21274;-77
2021/12/23 05:03:58;;;;;;;4.72;2.65;;;25.80;62.00;;;;;;4136034;28;20054;-78
2021/12/23 05:06:00;;;;;;;4.70;2.70;;;25.70;59.70;;;;;;4135212;28;20045;-76
2021/12/23 05:08:02;;;;;;;4.35;2.83;;;25.60;58.00;;;;;;4138531;28;20049;-79
2021/12/23 05:10:09;;;;;;;3.15;2.22;;;25.50;57.90;;;;;;4140929;28;20054;-75
2021/12/23 05:12:12;;;;;;;6.05;2.88;;;25.40;60.30;;;;;;4131425;28;20049;-80
2021/12/23 05:14:14;;;;;;;7.18;3.85;;;25.50;62.10;;;;;;4123043;28;20049;-79
2021/12/23 05:16:21;;;;;;;5.00;2.80;;;25.50;62.90;;;;;;4115099;28;20454;-81
2021/12/23 05:18:23;;;;;;;5.97;3.00;;;25.60;63.70;;;;;;4112618;28;20050;-78
2021/12/23 05:20:26;;;;;;;4.97;2.83;;;25.60;64.30;;;;;;4106638;28;20862;-80
2021/12/23 05:22:28;;;;;;;6.35;3.25;;;25.60;64.90;;;;;;4105456;28;20084;-79
2021/12/23 05:24:30;;;;;;;5.75;2.92;;;25.70;64.80;;;;;;4097295;28;20051;-76
2021/12/23 05:26:32;;;;;;;7.85;3.40;;;25.70;62.80;;;;;;4108600;28;21069;-79
2021/12/23 05:28:35;;;;;;;3.55;2.65;;;25.60;60.30;;;;;;4107275;28;20054;-73
2021/12/23 05:30:37;;;;;;;4.75;2.45;;;25.50;58.70;;;;;;4108029;28;20717;-75
2021/12/23 05:32:41;;;;;;;4.95;2.50;;;25.40;58.00;;;;;;4096798;28;20050;-72
2021/12/23 05:34:43;;;;;;;6.60;2.90;;;25.40;59.30;;;;;;4107202;28;20145;-75
2021/12/23 05:36:46;;;;;;;5.00;2.70;;;25.40;62.20;;;;;;4107331;28;20050;-75
2021/12/23 05:38:48;;;;;;;7.87;2.93;;;25.40;63.60;;;;;;4130739;28;20534;-74
2021/12/23 05:40:50;;;;;;;5.22;3.00;;;25.40;64.20;;;;;;4125601;28;22026;-72
2021/12/23 05:42:53;;;;;;;6.22;3.10;;;25.50;64.50;;;;;;4103711;28;20065;-75
2021/12/23 05:44:55;;;;;;;6.60;2.80;;;25.50;64.80;;;;;;4125843;28;20053;-75
2021/12/23 05:46:57;;;;;;;7.97;2.83;;;25.50;65.00;;;;;;4111370;28;20867;-72
2021/12/23 05:48:59;;;;;;;4.28;2.63;;;25.60;64.10;;;;;;4121927;28;20687;-73
2021/12/23 05:51:01;;;;;;;4.55;2.63;;;25.60;61.30;;;;;;4106123;28;20050;-72
2021/12/23 05:53:13;;;;;;;3.75;2.45;;;25.50;59.30;;;;;;4110715;28;20062;-74
2021/12/23 05:55:19;;;;;;;4.53;2.50;;;25.40;58.00;;;;;;4129902;28;20148;-73
2021/12/23 05:57:24;;;;;;;5.68;2.55;;;25.30;59.20;;;;;;4104518;28;20050;-73
2021/12/23 05:59:26;;;;;;;6.10;2.83;;;25.20;61.40;;;;;;4104152;28;21342;-72
2021/12/23 06:01:28;;;;;;;5.13;2.40;;;25.30;62.50;;;;;;4103122;28;20058;-72
2021/12/23 06:03:31;;;;;;;5.28;2.78;;;25.30;63.20;;;;;;4127946;28;20042;-72
2021/12/23 06:05:33;;;;;;;6.50;3.17;;;25.30;63.80;;;;;;4103048;28;20093;-73
2021/12/23 06:07:35;;;;;;;5.53;2.70;;;25.40;64.30;;;;;;4102661;28;20065;-73
2021/12/23 06:09:37;;;;;;;5.10;2.35;;;25.40;64.70;;;;;;4126517;28;20382;-72
2021/12/23 06:11:40;;;;;;;4.68;2.40;;;25.40;64.70;;;;;;4105325;28;20054;-71
2021/12/23 06:13:42;;;;;;;3.83;2.43;;;25.50;63.80;;;;;;4120528;28;20049;-72
2021/12/23 06:15:44;;;;;;;3.30;2.03;;;25.50;60.80;;;;;;4122142;28;20521;-73
2021/12/23 06:17:53;;;;;;;3.63;2.10;;;25.40;58.80;;;;;;4127474;28;20119;-74
2021/12/23 06:19:55;;;;;;;3.72;2.38;;;25.30;57.80;;;;;;4107988;28;21673;-73
2021/12/23 06:21:58;;;;;;;3.90;2.50;;;25.20;59.80;;;;;;4103596;28;20386;-71
2021/12/23 06:24:02;;;;;;;5.25;2.65;;;25.20;61.70;;;;;;4123410;28;20746;-73
2021/12/23 06:26:05;;;;;;;4.07;2.17;;;25.20;62.70;;;;;;4109538;28;20169;-74
2021/12/23 06:28:07;;;;;;;4.10;2.38;;;25.30;63.10;;;;;;4103477;28;20038;-73
2021/12/23 06:30:19;;;;;;;4.37;2.50;;;25.30;63.40;;;;;;4105483;28;20046;-73
2021/12/23 06:32:21;;;;;;;4.15;2.40;;;25.40;63.70;;;;;;4122315;28;20037;-74
2021/12/23 06:34:23;;;;;;;5.20;2.33;;;25.40;63.90;;;;;;4094890;28;20054;-74
2021/12/23 06:36:26;;;;;;;4.43;2.30;;;25.40;64.00;;;;;;4124562;28;20306;-73
2021/12/23 06:38:28;;;;;;;4.50;2.23;;;25.50;62.90;;;;;;4119506;28;20142;-72
2021/12/23 06:40:30;;;;;;;4.13;2.10;;;25.40;60.00;;;;;;4105385;28;20782;-73
2021/12/23 06:42:32;;;;;;;3.63;2.13;;;25.30;58.20;;;;;;4109743;28;20809;-75
2021/12/23 06:44:35;;;;;;;3.85;2.00;;;25.20;57.40;;;;;;4088810;28;20094;-73
2021/12/23 06:46:40;;;;;;;4.18;2.40;;;25.10;59.40;;;;;;4102865;28;20073;-75
2021/12/23 06:48:42;;;;;;;5.28;2.10;;;25.10;61.30;;;;;;4109491;28;20057;-72
2021/12/23 06:50:45;;;;;;;5.05;2.45;;;25.20;62.10;;;;;;4107192;28;20058;-73
2021/12/23 06:52:48;;;;;;;4.35;2.35;;;25.20;62.60;;;;;;4103379;28;20116;-72
2021/12/23 06:54:53;;;;;;;3.75;2.35;;;25.20;62.90;;;;;;4123201;28;20060;-73
2021/12/23 06:56:55;;;;;;;4.07;2.30;;;25.30;63.20;;;;;;4108139;28;20068;-72
2021/12/23 06:58:57;;;;;;;4.07;2.10;;;25.30;63.70;;;;;;4103772;28;21474;-72
2021/12/23 07:56:05;;;;;;;2.33;1.65;;;25.30;63.70;;;;;;5001796;23;3076664;-60
2021/12/23 07:58:08;;;;;;;3.85;2.03;;;25.30;60.90;;;;;;5135657;23;20205;-59
2021/12/23 08:00:11;;;;;;;3.47;1.85;;;25.20;58.70;;;;;;5140436;23;20023;-59
2021/12/23 08:02:13;;;;;;;3.42;1.90;;;25.10;57.20;;;;;;5106040;23;20626;-58
2021/12/23 08:04:15;;;;;;;3.53;1.85;;;25.00;57.40;;;;;;5106233;23;20104;-59
2021/12/23 08:06:18;;;;;;;3.58;1.90;;;25.00;59.90;;;;;;5137982;23;20032;-58
2021/12/23 08:08:20;;;;;;;3.83;1.60;;;25.00;61.10;;;;;;5131522;23;20020;-59
2021/12/23 08:10:22;;;;;;;4.18;2.10;;;25.00;61.80;;;;;;5131902;23;20076;-59
2021/12/23 08:12:25;;;;;;;3.30;1.90;;;25.10;62.10;;;;;;5108639;23;20032;-59
2021/12/23 08:14:28;;;;;;;5.65;2.10;;;25.10;62.60;;;;;;5105489;23;20520;-59
2021/12/23 08:16:30;;;;;;;4.40;1.97;;;25.10;62.80;;;;;;5098021;23;20051;-58
2021/12/23 08:18:33;;;;;;;3.15;1.70;;;25.20;63.00;;;;;;5074989;23;20422;-58
2021/12/23 08:20:35;;;;;;;4.50;1.73;;;25.20;63.10;;;;;;5133747;23;20028;-58
2021/12/23 08:22:39;;;;;;;3.00;2.03;;;25.20;63.20;;;;;;5126449;23;20035;-59
2021/12/23 08:24:41;;;;;;;4.63;1.67;;;25.20;62.80;;;;;;5101108;23;20395;-59
2021/12/23 08:26:51;;;;;;;2.53;1.52;;;25.20;59.80;;;;;;5105410;23;20483;-59
2021/12/23 08:28:53;;;;;;;3.00;1.63;;;25.10;58.00;;;;;;5110294;23;20037;-59
2021/12/23 08:30:55;;;;;;;3.08;1.70;;;25.00;56.60;;;;;;5131903;23;20048;-59
2021/12/23 08:32:57;;;;;;;3.78;1.73;;;24.90;56.00;;;;;;5131004;23;20032;-59
2021/12/23 08:35:00;;;;;;;4.18;2.30;;;24.80;58.90;;;;;;5133523;23;20121;-59
2021/12/23 08:37:06;;;;;;;6.05;2.20;;;24.80;61.60;;;;;;5110712;23;20025;-58
2021/12/23 08:39:08;;;;;;;4.60;2.35;;;24.90;63.20;;;;;;5104702;23;20032;-59
2021/12/23 08:41:11;;;;;;;4.15;2.30;;;24.90;63.80;;;;;;5105430;23;20439;-59
2021/12/23 08:43:13;;;;;;;4.35;2.50;;;25.00;64.00;;;;;;5083195;23;20788;-59
2021/12/23 08:45:17;;;;;;;5.28;2.22;;;25.00;64.10;;;;;;5107819;23;21201;-59
2021/12/23 08:47:19;;;;;;;4.30;2.08;;;25.10;64.00;;;;;;5103555;23;20036;-59
2021/12/23 08:49:21;;;;;;;4.53;2.25;;;25.10;64.00;;;;;;5133515;23;20043;-59
2021/12/23 08:51:24;;;;;;;3.50;1.90;;;25.10;64.10;;;;;;5111458;23;20025;-59
2021/12/23 08:53:26;;;;;;;3.70;2.25;;;25.10;63.50;;;;;;5106452;23;20028;-59
2021/12/23 08:55:31;;;;;;;2.90;1.77;;;25.10;60.40;;;;;;5103718;23;20028;-59
2021/12/23 08:57:33;;;;;;;3.15;1.92;;;25.10;58.60;;;;;;5090464;23;20021;-59
2021/12/23 08:59:36;;;;;;;2.17;1.63;;;24.90;57.10;;;;;;5084248;23;20032;-59
2021/12/23 09:01:42;;;;;;;2.73;1.77;;;24.80;57.50;;;;;;5080849;23;20056;-59
2021/12/23 09:03:44;;;;;;;3.35;1.95;;;24.80;59.90;;;;;;5078859;23;20092;-59
2021/12/23 09:05:46;;;;;;;3.00;1.80;;;24.80;61.50;;;;;;5084069;23;20759;-59
2021/12/23 09:07:50;;;;;;;4.63;2.20;;;24.80;62.30;;;;;;5081990;23;20396;-59
2021/12/23 09:09:52;;;;;;;4.03;2.10;;;24.80;62.80;;;;;;5078794;23;20087;-58
2021/12/23 09:11:54;;;;;;;4.05;2.03;;;24.80;62.80;;;;;;5079013;23;20025;-59
2021/12/23 09:13:57;;;;;;;4.05;1.85;;;24.90;63.10;;;;;;5085697;23;20147;-59
2021/12/23 09:16:00;;;;;;;5.60;2.10;;;24.90;63.50;;;;;;5107523;23;20111;-59
2021/12/23 09:18:02;;;;;;;3.40;2.20;;;25.00;63.60;;;;;;5079280;23;20032;-59
2021/12/23 09:20:06;;;;;;;3.40;2.05;;;25.00;63.70;;;;;;5084677;23;20029;-59
2021/12/23 09:22:09;;;;;;;2.58;1.85;;;25.00;62.50;;;;;;5082263;23;20534;-59
2021/12/23 09:24:12;;;;;;;3.33;2.13;;;24.90;59.60;;;;;;5079149;23;20426;-58
2021/12/23 09:26:14;;;;;;;3.03;1.90;;;24.90;57.90;;;;;;5107587;23;20083;-58
2021/12/23 09:28:41;;;;;;;3.20;1.90;;;;;;;;;;5112146;23;20028;-58
2021/12/23 09:33:06;;;;;;;3.65;2.13;;;;;;;;;;5080026;23;21092;-58
2021/12/23 09:35:08;;;;;;;5.10;2.65;;;;;;;;;;5077529;23;20033;-59
2021/12/23 09:37:10;;;;;;;6.43;3.40;;;;;;;;;;5082210;23;20075;-59
2021/12/23 09:39:12;;;;;;;7.25;3.78;;;;;;;;;;5082355;23;20068;-58
2021/12/23 09:41:19;;;;;;;8.52;4.70;;;;;;;;;;5080125;23;20021;-58
2021/12/23 09:43:22;;;;;;;8.70;4.15;;;;;;;;;;5077465;23;20110;-59
2021/12/23 09:45:24;;;;;;;9.20;5.38;;;;;;;;;;5082799;23;20029;-58
2021/12/23 09:47:27;;;;;;;9.77;6.07;;;;;;;;;;5082061;23;20021;-58
2021/12/23 09:49:30;;;;;;;9.27;5.63;;;;;;;;;;5079117;23;20029;-58
2021/12/23 09:51:33;;;;;;;9.57;4.68;;;;;;;;;;5079351;23;20060;-57
2021/12/23 09:53:37;;;;;;;8.68;4.70;;;;;;;;;;5086776;23;20519;-58
2021/12/23 09:55:39;;;;;;;8.40;4.63;;;;;;;;;;5105621;23;20027;-60
2021/12/23 09:57:41;;;;;;;7.85;4.35;;;;;;;;;;5096112;23;20091;-58
2021/12/23 09:59:44;;;;;;;8.77;4.45;;;;;;;;;;5131741;23;20024;-58
2021/12/23 10:01:46;;;;;;;9.50;4.57;;;;;;;;;;5107497;23;20562;-58
2021/12/23 10:03:51;;;;;;;8.18;4.10;;;;;;;;;;5101648;23;20347;-58
2021/12/23 10:05:55;;;;;;;7.50;4.18;;;24.50;55.30;;;;;;5101383;23;20112;-57
2021/12/23 10:07:57;;;;;;;8.43;4.53;;;24.30;64.30;;;;;;5104135;23;20040;-58
2021/12/23 10:10:07;;;;;;;7.65;4.18;;;24.40;65.20;;;;;;5100858;23;20575;-58
2021/12/23 10:31:38;;;;;;;6.32;3.38;;;24.60;66.50;;;;;;5099589;23;20492;-59
2021/12/23 10:33:49;;;;;;;5.75;3.00;;;24.70;66.70;;;;;;5104367;23;20954;-58
2021/12/23 10:38:19;;;;;;;5.35;2.88;;;24.70;66.70;;;;;;5104545;23;20036;-59
2021/12/23 10:40:21;;;;;;;4.07;2.42;;;24.80;67.10;;;;;;5107475;23;20035;-58
2021/12/23 10:42:25;;;;;;;5.68;3.00;;;24.80;67.00;;;;;;5127433;23;20062;-56
2021/12/23 10:44:31;;;;;;;5.20;2.58;;;24.80;67.00;;;;;;5128201;23;20091;-56
2021/12/23 10:46:38;;;;;;;4.45;2.30;;;24.80;67.60;;;;;;5101197;23;20950;-56
2021/12/23 10:48:55;;;;;;;4.65;2.38;;;24.90;68.30;;;;;;5105995;23;20025;-54
2021/12/23 10:51:07;;;;;;;7.38;2.20;;;24.90;68.70;;;;;;5074312;23;20151;-56
2021/12/23 10:53:14;;;;;;;6.45;1.77;;;24.90;68.80;;;;;;5099684;23;20036;-52
2021/12/23 11:00:09;;;;;;;3.72;1.70;;;25.00;68.90;;;;;;5103663;23;21038;-57
2021/12/23 11:02:19;;;;;;;5.15;1.80;;;25.10;68.90;;;;;;5103041;23;20116;-58
2021/12/23 11:04:21;;;;;;;4.15;2.00;;;25.10;68.70;;;;;;5104780;23;20481;-61
2021/12/23 11:06:44;;;;;;;4.60;1.60;;;25.10;68.60;;;;;;5074405;23;20040;-56
2021/12/23 11:08:59;;;;;;;3.25;1.48;;;25.10;68.60;;;;;;5101677;23;20036;-57
2021/12/23 11:11:37;;;;;;;1.90;1.10;;;25.10;68.40;;;;;;5077929;23;20099;-58
2021/12/23 11:28:19;;;;;;;2.42;1.38;;;25.30;68.00;;;;;;5109923;23;20028;-58
2021/12/23 11:37:41;;;;;;;0.73;0.65;;;25.40;67.90;;;;;;5069299;23;20029;-54
2021/12/23 11:42:15;;;;;;;2.70;1.00;;;25.40;67.90;;;;;;5083889;23;20025;-58
2021/12/23 11:44:17;;;;;;;;;;;25.40;67.80;;;;;;5084344;23;20029;-50
2021/12/23 11:46:32;;;;;;;1.00;0.90;;;25.50;67.90;;;;;;5060197;23;19917;-54
2021/12/23 11:48:41;;;;;;;4.35;1.10;;;25.50;67.90;;;;;;5115846;23;20115;-58
2021/12/23 11:51:01;;;;;;;2.15;1.00;;;25.50;68.10;;;;;;5089200;23;20072;-59
2021/12/23 11:53:03;;;;;;;4.93;1.08;;;25.50;68.30;;;;;;5091462;23;20025;-57
2021/12/23 11:55:06;;;;;;;0.73;0.73;;;25.60;68.20;;;;;;5090164;23;20075;-59
2021/12/23 11:57:23;;;;;;;5.40;1.38;;;25.60;68.10;;;;;;5102885;23;20036;-54
2021/12/23 11:59:29;;;;;;;1.08;0.80;;;25.60;68.00;;;;;;5111752;23;20151;-53
2021/12/23 12:01:42;;;;;;;4.45;0.90;;;25.60;68.00;;;;;;5113101;23;20028;-53
2021/12/23 12:03:58;;;;;;;4.23;1.10;;;25.60;67.90;;;;;;5083098;23;20032;-58
2021/12/23 12:06:23;;;;;;;0.93;0.70;;;25.70;67.90;;;;;;5109758;23;20032;-59
2021/12/23 12:08:25;;;;;;;2.78;1.00;;;25.70;67.80;;;;;;5114627;23;20036;-59
2021/12/23 12:10:28;;;;;;;1.00;0.73;;;25.70;67.80;;;;;;5136107;23;20068;-59
2021/12/23 12:12:32;;;;;;;1.52;0.90;;;25.70;67.80;;;;;;5085258;23;20032;-56
2021/12/23 12:14:40;;;;;;;2.33;0.98;;;25.80;67.90;;;;;;5138208;23;20024;-57
2021/12/23 12:16:43;;;;;;;1.23;0.80;;;25.80;67.90;;;;;;5138171;23;20028;-52
2021/12/23 12:18:46;;;;;;;;;;;25.80;67.90;;;;;;5102262;23;21267;-57
2021/12/23 12:20:58;;;;;;;3.53;1.13;;;25.90;67.90;;;;;;5108057;23;19951;-55
2021/12/23 12:23:06;;;;;;;6.63;1.40;;;25.90;68.10;;;;;;5104766;23;20039;-51
2021/12/23 12:25:09;;;;;;;2.53;0.88;;;26.00;68.20;;;;;;5108404;23;20036;-50
2021/12/23 12:27:11;;;;;;;0.98;0.77;;;26.00;68.10;;;;;;5137230;23;20113;-57
2021/12/23 12:29:15;;;;;;;5.78;1.00;;;26.00;68.40;;;;;;5108657;23;20021;-56
2021/12/23 12:31:23;;;;;;;7.97;1.08;;;26.10;68.00;;;;;;5134971;23;20020;-53
2021/12/23 12:33:25;;;;;;;4.38;1.08;;;26.10;67.80;;;;;;5108925;23;20559;-57
2021/12/23 12:35:29;;;;;;;2.97;0.80;;;26.10;67.60;;;;;;5112425;23;20032;-56
2021/12/23 12:37:44;;;;;;;4.72;1.73;;;26.10;67.50;;;;;;5136395;23;20031;-56
2021/12/23 12:39:51;;;;;;;6.95;1.20;;;26.10;67.30;;;;;;5112572;23;20252;-53
2021/12/23 12:42:04;;;;;;;5.85;1.35;;;26.20;67.30;;;;;;5108362;23;20028;-56
2021/12/23 12:44:16;;;;;;;5.20;1.08;;;26.20;67.40;;;;;;5085931;23;20052;-56
2021/12/23 12:46:36;;;;;;;5.18;1.23;;;26.20;67.40;;;;;;5136827;23;20101;-56
2021/12/23 12:49:09;;;;;;;6.57;1.30;;;26.20;67.20;;;;;;5138860;23;20295;-56
2021/12/23 12:51:28;;;;;;;2.55;1.10;;;26.20;67.20;;;;;;5080618;23;20547;-54
2021/12/23 12:53:37;;;;;;;3.45;1.33;;;26.20;67.20;;;;;;5139366;23;20037;-53
2021/12/23 12:55:39;;;;;;;1.92;0.85;;;26.30;67.20;;;;;;5108874;23;20123;-57
2021/12/23 12:57:54;;;;;;;2.22;0.93;;;26.30;67.10;;;;;;5133898;23;20520;-56
2021/12/23 12:59:57;;;;;;;2.53;0.80;;;26.30;67.00;;;;;;5105644;23;20024;-58